Archival Weather

Tokyo Intl

Tokyo, Japan (RJTT)

Report from: Friday, September 22, 2023 5:00 AM JST
Current time: Sunday, February 25, 2024 1:28 AM JST

Current weather – Weather history – Daily summaries
Weather forecast

Present weatherVCSH
Temperature25.0°C (77.0°F)
Dew point24.0°C (75.2°F)
Winds 9 kts (4.6 m/s, 10.4 mph) South-Southwest (210°)
Visibility6.2 mi. (10 km)
Clouds Few clouds 1,500 ft. (457 m)
Ceiling: Broken clouds 13,000 ft. (3,962 m)
Altimeter29.77 in.Hg (1008 mB)
Relative humidity94 %
Density altitude1,735 ft. (529 m)
Remarks No significant changes expected in the next two hours
Flight conditions Visual Meteorological Conditions
Raw dataRJTT 212000Z 21009KT 9999 VCSH FEW015 BKN130 25/24 Q1008 NOSIG
An error has occurred. This application may no longer respond until reloaded. Reload 🗙